PWSweather.com
Personal Weather Stations
Station Observations
MENWDWX1
Menstrie, ScotlandGB

MenstrieScotlandGB

Lat: 56.148322, Lon: -3.85483

Elevation: 62

Station Type: Davis Vantage Pro 2

High Low Average
Temperature 77.2°F25.1°C 53.2°F11.8°C 63.0°F17.2°C
Dew Point 63.1°F17.3°C 47.0°F8.3°C 54.8°F12.7°C
Winds 6.9 mph 11.1 kmh Calm Calm 1.0 mph S1.6 kmh S
Wind Gusts 11.5 mph18.5 kmh -- 2.0 mph3.2 kmh
Humidity 80% 56% 75%
Pressure 30.03 in1016.9 mb 29.98 in1015.2 mb -
Precipitation 0.12 in3.0 mm - -
Hour Temp Dew Point Humidity Winds Wind Gusts Pressure Precip Precip Rate Daily Precip Total
12:00 AM 54.7°F12.6°C 48.3°F9.1°C 79% Calm Calm -- 30.02 in1016.6 mb - 0.00 in0.0 mm 0.00 in0.0 mm
12:05 AM 54.5°F12.5°C 48.1°F8.9°C 79% 1.2 mph NE1.9 kmh NE 1.2 mph1.9 kmh 30.02 in1016.6 mb - 0.00 in0.0 mm 0.00 in0.0 mm
12:10 AM 54.4°F12.4°C 48.1°F8.9°C 79% Calm Calm -- 30.02 in1016.6 mb - 0.00 in0.0 mm 0.00 in0.0 mm
12:15 AM 54.4°F12.4°C 48.0°F8.9°C 79% Calm Calm -- 30.02 in1016.6 mb - 0.00 in0.0 mm 0.00 in0.0 mm
12:20 AM 54.3°F12.4°C 47.9°F8.8°C 79% Calm Calm -- 30.02 in1016.6 mb - 0.00 in0.0 mm 0.00 in0.0 mm
12:25 AM 54.2°F12.3°C 47.8°F8.8°C 79% Calm Calm -- 30.02 in1016.6 mb - 0.00 in0.0 mm 0.00 in0.0 mm
12:30 AM 54.4°F12.4°C 48.0°F8.9°C 79% Calm Calm -- 30.02 in1016.6 mb - 0.00 in0.0 mm 0.00 in0.0 mm
12:35 AM 54.2°F12.3°C 47.8°F8.8°C 79% Calm Calm -- 30.02 in1016.6 mb - 0.00 in0.0 mm 0.00 in0.0 mm
12:40 AM 54.1°F12.3°C 47.7°F8.7°C 79% Calm Calm -- 30.02 in1016.6 mb - 0.00 in0.0 mm 0.00 in0.0 mm
12:45 AM 53.9°F12.2°C 47.5°F8.6°C 79% Calm Calm -- 30.02 in1016.6 mb - 0.00 in0.0 mm 0.00 in0.0 mm
12:50 AM 53.9°F12.2°C 47.5°F8.6°C 79% Calm Calm -- 30.02 in1016.6 mb - 0.00 in0.0 mm 0.00 in0.0 mm
12:55 AM 53.8°F12.1°C 47.4°F8.6°C 79% Calm Calm -- 30.03 in1016.9 mb - 0.00 in0.0 mm 0.00 in0.0 mm
01:00 AM 53.7°F12.1°C 47.3°F8.5°C 79% Calm Calm -- 30.03 in1016.9 mb - 0.00 in0.0 mm 0.00 in0.0 mm
01:05 AM 53.7°F12.1°C 47.3°F8.5°C 79% Calm Calm -- 30.02 in1016.6 mb - 0.00 in0.0 mm 0.00 in0.0 mm
01:10 AM 53.7°F12.1°C 47.3°F8.5°C 79% Calm Calm -- 30.03 in1016.9 mb - 0.00 in0.0 mm 0.00 in0.0 mm
01:15 AM 53.6°F12.0°C 47.2°F8.4°C 79% Calm Calm -- 30.03 in1016.9 mb - 0.00 in0.0 mm 0.00 in0.0 mm
01:20 AM 53.5°F11.9°C 47.1°F8.4°C 79% Calm Calm -- 30.02 in1016.6 mb - 0.00 in0.0 mm 0.00 in0.0 mm
01:25 AM 53.3°F11.8°C 47.0°F8.3°C 79% Calm Calm -- 30.02 in1016.6 mb - 0.00 in0.0 mm 0.00 in0.0 mm
01:30 AM 53.4°F11.9°C 47.0°F8.3°C 79% Calm Calm -- 30.02 in1016.6 mb - 0.00 in0.0 mm 0.00 in0.0 mm
01:35 AM 53.4°F11.9°C 47.0°F8.3°C 79% 1.2 mph W1.9 kmh W 2.3 mph3.7 kmh 30.02 in1016.6 mb - 0.00 in0.0 mm 0.00 in0.0 mm
01:40 AM 53.4°F11.9°C 47.0°F8.3°C 79% 1.2 mph W1.9 kmh W 1.2 mph1.9 kmh 30.02 in1016.6 mb - 0.00 in0.0 mm 0.00 in0.0 mm
01:45 AM 53.5°F11.9°C 47.1°F8.4°C 79% Calm Calm -- 30.02 in1016.6 mb - 0.00 in0.0 mm 0.00 in0.0 mm
01:50 AM 53.5°F11.9°C 47.1°F8.4°C 79% Calm Calm -- 30.02 in1016.6 mb - 0.00 in0.0 mm 0.00 in0.0 mm
01:55 AM 53.4°F11.9°C 47.0°F8.3°C 79% Calm Calm -- 30.02 in1016.6 mb - 0.00 in0.0 mm 0.00 in0.0 mm
02:00 AM 53.5°F11.9°C 47.1°F8.4°C 79% Calm Calm -- 30.02 in1016.6 mb - 0.00 in0.0 mm 0.00 in0.0 mm
02:05 AM 53.7°F12.1°C 47.7°F8.7°C 80% Calm Calm -- 30.02 in1016.6 mb - 0.00 in0.0 mm 0.00 in0.0 mm
02:10 AM 53.8°F12.1°C 47.8°F8.8°C 80% Calm Calm -- 30.02 in1016.6 mb - 0.00 in0.0 mm 0.00 in0.0 mm
02:15 AM 53.9°F12.2°C 47.9°F8.8°C 80% Calm Calm -- 30.02 in1016.6 mb - 0.00 in0.0 mm 0.00 in0.0 mm
02:20 AM 54.0°F12.2°C 48.0°F8.9°C 80% Calm Calm -- 30.02 in1016.6 mb - 0.00 in0.0 mm 0.00 in0.0 mm
02:25 AM 54.1°F12.3°C 48.0°F8.9°C 80% Calm Calm -- 30.01 in1016.3 mb - 0.00 in0.0 mm 0.00 in0.0 mm
02:30 AM 54.1°F12.3°C 48.1°F8.9°C 80% Calm Calm -- 30.01 in1016.3 mb - 0.00 in0.0 mm 0.00 in0.0 mm
02:35 AM 54.1°F12.3°C 48.1°F8.9°C 80% Calm Calm -- 30.01 in1016.3 mb - 0.00 in0.0 mm 0.00 in0.0 mm
02:40 AM 54.1°F12.3°C 48.1°F8.9°C 80% Calm Calm -- 30.02 in1016.6 mb - 0.00 in0.0 mm 0.00 in0.0 mm
02:45 AM 54.0°F12.2°C 48.0°F8.9°C 80% Calm Calm -- 30.02 in1016.6 mb - 0.00 in0.0 mm 0.00 in0.0 mm
02:50 AM 54.0°F12.2°C 48.0°F8.9°C 80% Calm Calm -- 30.02 in1016.6 mb - 0.00 in0.0 mm 0.00 in0.0 mm
02:55 AM 54.0°F12.2°C 48.0°F8.9°C 80% Calm Calm -- 30.01 in1016.3 mb - 0.00 in0.0 mm 0.00 in0.0 mm
03:00 AM 54.1°F12.3°C 48.1°F8.9°C 80% Calm Calm -- 30.01 in1016.3 mb - 0.00 in0.0 mm 0.00 in0.0 mm
03:05 AM 54.2°F12.3°C 48.2°F9.0°C 80% Calm Calm -- 30.01 in1016.3 mb - 0.00 in0.0 mm 0.00 in0.0 mm
03:10 AM 54.3°F12.4°C 48.2°F9.0°C 80% Calm Calm -- 30.02 in1016.6 mb - 0.00 in0.0 mm 0.00 in0.0 mm
03:15 AM 54.3°F12.4°C 48.3°F9.1°C 80% Calm Calm -- 30.02 in1016.6 mb - 0.00 in0.0 mm 0.00 in0.0 mm
03:20 AM 54.4°F12.4°C 48.4°F9.1°C 80% Calm Calm -- 30.02 in1016.6 mb - 0.00 in0.0 mm 0.00 in0.0 mm
03:25 AM 54.4°F12.4°C 48.4°F9.1°C 80% Calm Calm -- 30.02 in1016.6 mb - 0.00 in0.0 mm 0.00 in0.0 mm
03:30 AM 54.4°F12.4°C 48.4°F9.1°C 80% Calm Calm -- 30.01 in1016.3 mb - 0.00 in0.0 mm 0.00 in0.0 mm
03:35 AM 54.4°F12.4°C 48.4°F9.1°C 80% Calm Calm -- 30.01 in1016.3 mb - 0.00 in0.0 mm 0.00 in0.0 mm
03:40 AM 54.4°F12.4°C 48.4°F9.1°C 80% Calm Calm -- 30.01 in1016.3 mb - 0.00 in0.0 mm 0.00 in0.0 mm
03:45 AM 54.4°F12.4°C 48.4°F9.1°C 80% Calm Calm -- 30.02 in1016.6 mb - 0.00 in0.0 mm 0.00 in0.0 mm
03:50 AM 54.3°F12.4°C 48.3°F9.1°C 80% Calm Calm -- 30.02 in1016.6 mb - 0.00 in0.0 mm 0.00 in0.0 mm
03:55 AM 54.2°F12.3°C 48.2°F9.0°C 80% Calm Calm -- 30.02 in1016.6 mb - 0.00 in0.0 mm 0.00 in0.0 mm
04:00 AM 54.2°F12.3°C 48.2°F9.0°C 80% Calm Calm -- 30.01 in1016.3 mb - 0.00 in0.0 mm 0.00 in0.0 mm
04:05 AM 54.0°F12.2°C 48.0°F8.9°C 80% Calm Calm -- 30.02 in1016.6 mb - 0.00 in0.0 mm 0.00 in0.0 mm
04:10 AM 53.9°F12.2°C 47.9°F8.8°C 80% Calm Calm -- 30.02 in1016.6 mb - 0.00 in0.0 mm 0.00 in0.0 mm
04:15 AM 53.8°F12.1°C 47.7°F8.7°C 80% Calm Calm -- 30.02 in1016.6 mb - 0.00 in0.0 mm 0.00 in0.0 mm
04:20 AM 53.7°F12.1°C 47.7°F8.7°C 80% Calm Calm -- 30.02 in1016.6 mb - 0.00 in0.0 mm 0.00 in0.0 mm
04:25 AM 53.5°F11.9°C 47.5°F8.6°C 80% Calm Calm -- 30.02 in1016.6 mb - 0.00 in0.0 mm 0.00 in0.0 mm
04:30 AM 53.4°F11.9°C 47.4°F8.6°C 80% Calm Calm -- 30.02 in1016.6 mb - 0.00 in0.0 mm 0.00 in0.0 mm
04:35 AM 53.3°F11.8°C 47.3°F8.5°C 80% Calm Calm -- 30.02 in1016.6 mb - 0.00 in0.0 mm 0.00 in0.0 mm
04:40 AM 53.2°F11.8°C 47.2°F8.4°C 80% Calm Calm -- 30.02 in1016.6 mb - 0.00 in0.0 mm 0.00 in0.0 mm
04:45 AM 53.2°F11.8°C 47.2°F8.4°C 80% Calm Calm -- 30.02 in1016.6 mb - 0.00 in0.0 mm 0.00 in0.0 mm
04:50 AM 53.2°F11.8°C 47.2°F8.4°C 80% Calm Calm -- 30.02 in1016.6 mb - 0.00 in0.0 mm 0.00 in0.0 mm
04:55 AM 53.2°F11.8°C 47.2°F8.4°C 80% Calm Calm -- 30.02 in1016.6 mb - 0.00 in0.0 mm 0.00 in0.0 mm
05:00 AM 53.3°F11.8°C 47.3°F8.5°C 80% Calm Calm -- 30.02 in1016.6 mb - 0.00 in0.0 mm 0.00 in0.0 mm
05:05 AM 53.6°F12.0°C 47.6°F8.7°C 80% Calm Calm -- 30.02 in1016.6 mb - 0.00 in0.0 mm 0.00 in0.0 mm
05:10 AM 53.9°F12.2°C 47.9°F8.8°C 80% Calm Calm -- 30.02 in1016.6 mb - 0.00 in0.0 mm 0.00 in0.0 mm
05:15 AM 54.0°F12.2°C 48.0°F8.9°C 80% 1.2 mph N1.9 kmh N 1.2 mph1.9 kmh 30.02 in1016.6 mb - 0.00 in0.0 mm 0.00 in0.0 mm
05:20 AM 54.1°F12.3°C 48.1°F8.9°C 80% 1.2 mph NW1.9 kmh NW 2.3 mph3.7 kmh 30.02 in1016.6 mb - 0.00 in0.0 mm 0.00 in0.0 mm
05:25 AM 54.3°F12.4°C 48.3°F9.1°C 80% 1.2 mph NW1.9 kmh NW 1.2 mph1.9 kmh 30.02 in1016.6 mb - 0.00 in0.0 mm 0.00 in0.0 mm
05:30 AM 54.5°F12.5°C 48.4°F9.1°C 80% Calm Calm 2.3 mph3.7 kmh 30.02 in1016.6 mb - 0.00 in0.0 mm 0.00 in0.0 mm
05:35 AM 54.5°F12.5°C 48.4°F9.1°C 80% 1.2 mph NW1.9 kmh NW 2.3 mph3.7 kmh 30.02 in1016.6 mb - 0.00 in0.0 mm 0.00 in0.0 mm
05:40 AM 54.4°F12.4°C 48.4°F9.1°C 80% 1.2 mph NW1.9 kmh NW 3.5 mph5.6 kmh 30.02 in1016.6 mb - 0.00 in0.0 mm 0.00 in0.0 mm
05:45 AM 54.4°F12.4°C 48.4°F9.1°C 80% 2.3 mph SW3.7 kmh SW 3.5 mph5.6 kmh 30.02 in1016.6 mb - 0.00 in0.0 mm 0.00 in0.0 mm
05:50 AM 54.6°F12.6°C 48.6°F9.2°C 80% 1.2 mph SW1.9 kmh SW 2.3 mph3.7 kmh 30.02 in1016.6 mb - 0.00 in0.0 mm 0.00 in0.0 mm
05:55 AM 54.6°F12.6°C 48.6°F9.2°C 80% 1.2 mph SW1.9 kmh SW 2.3 mph3.7 kmh 30.02 in1016.6 mb - 0.00 in0.0 mm 0.00 in0.0 mm
06:00 AM 54.8°F12.7°C 48.8°F9.3°C 80% Calm Calm 1.2 mph1.9 kmh 30.02 in1016.6 mb - 0.00 in0.0 mm 0.00 in0.0 mm
06:05 AM 55.0°F12.8°C 48.9°F9.4°C 80% Calm Calm -- 30.02 in1016.6 mb - 0.00 in0.0 mm 0.00 in0.0 mm
06:10 AM 55.1°F12.8°C 49.0°F9.4°C 80% Calm Calm -- 30.03 in1016.9 mb - 0.00 in0.0 mm 0.00 in0.0 mm
06:15 AM 55.2°F12.9°C 49.1°F9.5°C 80% Calm Calm -- 30.03 in1016.9 mb - 0.00 in0.0 mm 0.00 in0.0 mm
06:20 AM 55.4°F13.0°C 49.3°F9.6°C 80% Calm Calm -- 30.03 in1016.9 mb - 0.00 in0.0 mm 0.00 in0.0 mm
06:25 AM 55.4°F13.0°C 49.3°F9.6°C 80% Calm Calm -- 30.03 in1016.9 mb - 0.00 in0.0 mm 0.00 in0.0 mm
06:30 AM 55.4°F13.0°C 49.4°F9.7°C 80% Calm Calm -- 30.03 in1016.9 mb - 0.00 in0.0 mm 0.00 in0.0 mm
06:35 AM 55.9°F13.3°C 49.8°F9.9°C 80% Calm Calm -- 30.03 in1016.9 mb - 0.00 in0.0 mm 0.00 in0.0 mm
06:40 AM 56.2°F13.4°C 49.8°F9.9°C 79% Calm Calm -- 30.03 in1016.9 mb - 0.00 in0.0 mm 0.00 in0.0 mm
06:45 AM 56.4°F13.6°C 50.0°F10.0°C 79% Calm Calm -- 30.03 in1016.9 mb - 0.00 in0.0 mm 0.00 in0.0 mm
06:50 AM 56.8°F13.8°C 50.3°F10.2°C 79% 1.2 mph SW1.9 kmh SW 2.3 mph3.7 kmh 30.03 in1016.9 mb - 0.00 in0.0 mm 0.00 in0.0 mm
06:55 AM 56.9°F13.8°C 50.5°F10.3°C 79% Calm Calm -- 30.03 in1016.9 mb - 0.00 in0.0 mm 0.00 in0.0 mm
07:00 AM 57.2°F14.0°C 50.8°F10.4°C 79% Calm Calm -- 30.03 in1016.9 mb - 0.00 in0.0 mm 0.00 in0.0 mm
07:05 AM 57.2°F14.0°C 50.4°F10.2°C 78% Calm Calm -- 30.03 in1016.9 mb - 0.00 in0.0 mm 0.00 in0.0 mm
07:10 AM 57.2°F14.0°C 50.4°F10.2°C 78% Calm Calm -- 30.03 in1016.9 mb - 0.00 in0.0 mm 0.00 in0.0 mm
07:15 AM 57.4°F14.1°C 50.6°F10.3°C 78% Calm Calm -- 30.03 in1016.9 mb - 0.00 in0.0 mm 0.00 in0.0 mm
07:20 AM 57.8°F14.3°C 51.0°F10.6°C 78% Calm Calm -- 30.03 in1016.9 mb - 0.00 in0.0 mm 0.00 in0.0 mm
07:25 AM 58.0°F14.4°C 51.2°F10.7°C 78% Calm Calm -- 30.03 in1016.9 mb - 0.00 in0.0 mm 0.00 in0.0 mm
07:30 AM 58.4°F14.7°C 51.6°F10.9°C 78% Calm Calm -- 30.03 in1016.9 mb - 0.00 in0.0 mm 0.00 in0.0 mm
07:35 AM 58.8°F14.9°C 51.9°F11.1°C 78% Calm Calm -- 30.03 in1016.9 mb - 0.00 in0.0 mm 0.00 in0.0 mm
07:40 AM 59.4°F15.2°C 52.2°F11.2°C 77% Calm Calm -- 30.03 in1016.9 mb - 0.00 in0.0 mm 0.00 in0.0 mm
07:45 AM 59.9°F15.5°C 52.7°F11.5°C 77% Calm Calm -- 30.03 in1016.9 mb - 0.00 in0.0 mm 0.00 in0.0 mm
07:50 AM 60.5°F15.8°C 53.3°F11.8°C 77% Calm Calm -- 30.03 in1016.9 mb - 0.00 in0.0 mm 0.00 in0.0 mm
07:55 AM 60.6°F15.9°C 53.3°F11.8°C 77% Calm Calm -- 30.03 in1016.9 mb - 0.00 in0.0 mm 0.00 in0.0 mm
08:00 AM 61.2°F16.2°C 53.6°F12.0°C 76% Calm Calm 2.3 mph3.7 kmh 30.03 in1016.9 mb - 0.00 in0.0 mm 0.00 in0.0 mm
08:05 AM 62.2°F16.8°C 54.9°F12.7°C 77% 1.2 mph S1.9 kmh S 3.5 mph5.6 kmh 30.03 in1016.9 mb - 0.00 in0.0 mm 0.00 in0.0 mm
08:10 AM 62.5°F16.9°C 54.8°F12.7°C 76% 1.2 mph S1.9 kmh S 1.2 mph1.9 kmh 30.03 in1016.9 mb - 0.00 in0.0 mm 0.00 in0.0 mm
08:15 AM 62.9°F17.2°C 55.3°F12.9°C 76% Calm Calm -- 30.03 in1016.9 mb - 0.00 in0.0 mm 0.00 in0.0 mm
08:20 AM 63.4°F17.4°C 55.7°F13.2°C 76% 2.3 mph S3.7 kmh S 3.5 mph5.6 kmh 30.03 in1016.9 mb - 0.00 in0.0 mm 0.00 in0.0 mm
08:25 AM 63.6°F17.6°C 55.9°F13.3°C 76% Calm Calm -- 30.03 in1016.9 mb - 0.00 in0.0 mm 0.00 in0.0 mm
08:30 AM 63.7°F17.6°C 56.0°F13.3°C 76% 1.2 mph S1.9 kmh S 2.3 mph3.7 kmh 30.03 in1016.9 mb - 0.00 in0.0 mm 0.00 in0.0 mm
08:35 AM 64.1°F17.8°C 56.4°F13.6°C 76% Calm Calm -- 30.03 in1016.9 mb - 0.00 in0.0 mm 0.00 in0.0 mm
08:40 AM 64.6°F18.1°C 56.9°F13.8°C 76% 1.2 mph S1.9 kmh S 2.3 mph3.7 kmh 30.03 in1016.9 mb - 0.00 in0.0 mm 0.00 in0.0 mm
08:45 AM 65.4°F18.6°C 57.6°F14.2°C 76% 1.2 mph S1.9 kmh S 3.5 mph5.6 kmh 30.02 in1016.6 mb - 0.00 in0.0 mm 0.00 in0.0 mm
08:50 AM 65.8°F18.8°C 57.7°F14.3°C 75% 1.2 mph S1.9 kmh S 2.3 mph3.7 kmh 30.02 in1016.6 mb - 0.00 in0.0 mm 0.00 in0.0 mm
08:55 AM 66.5°F19.2°C 58.3°F14.6°C 75% 1.2 mph S1.9 kmh S 2.3 mph3.7 kmh 30.02 in1016.6 mb - 0.00 in0.0 mm 0.00 in0.0 mm
09:00 AM 66.6°F19.2°C 58.4°F14.7°C 75% Calm Calm 2.3 mph3.7 kmh 30.02 in1016.6 mb - 0.00 in0.0 mm 0.00 in0.0 mm
09:05 AM 66.8°F19.3°C 58.6°F14.8°C 75% 2.3 mph S3.7 kmh S 3.5 mph5.6 kmh 30.02 in1016.6 mb - 0.00 in0.0 mm 0.00 in0.0 mm
09:10 AM 67.2°F19.6°C 59.0°F15.0°C 75% 1.2 mph S1.9 kmh S 1.2 mph1.9 kmh 30.02 in1016.6 mb - 0.00 in0.0 mm 0.00 in0.0 mm
09:15 AM 67.2°F19.6°C 59.0°F15.0°C 75% 1.2 mph S1.9 kmh S 3.5 mph5.6 kmh 30.02 in1016.6 mb - 0.00 in0.0 mm 0.00 in0.0 mm
09:20 AM 67.2°F19.6°C 59.0°F15.0°C 75% 1.2 mph S1.9 kmh S 2.3 mph3.7 kmh 30.02 in1016.6 mb - 0.00 in0.0 mm 0.00 in0.0 mm
09:25 AM 67.4°F19.7°C 59.2°F15.1°C 75% 2.3 mph S3.7 kmh S 3.5 mph5.6 kmh 30.02 in1016.6 mb - 0.00 in0.0 mm 0.00 in0.0 mm
09:30 AM 67.4°F19.7°C 59.2°F15.1°C 75% Calm Calm -- 30.02 in1016.6 mb - 0.00 in0.0 mm 0.00 in0.0 mm
09:35 AM 67.4°F19.7°C 59.2°F15.1°C 75% 2.3 mph S3.7 kmh S 3.5 mph5.6 kmh 30.02 in1016.6 mb - 0.00 in0.0 mm 0.00 in0.0 mm
09:40 AM 67.9°F19.9°C 59.3°F15.2°C 74% 1.2 mph S1.9 kmh S 3.5 mph5.6 kmh 30.02 in1016.6 mb - 0.00 in0.0 mm 0.00 in0.0 mm
09:45 AM 68.5°F20.3°C 60.2°F15.7°C 75% 1.2 mph S1.9 kmh S 2.3 mph3.7 kmh 30.02 in1016.6 mb - 0.00 in0.0 mm 0.00 in0.0 mm
09:50 AM 69.0°F20.6°C 59.9°F15.5°C 73% Calm Calm 2.3 mph3.7 kmh 30.02 in1016.6 mb - 0.00 in0.0 mm 0.00 in0.0 mm
09:55 AM 69.2°F20.7°C 60.2°F15.7°C 73% 2.3 mph S3.7 kmh S 3.5 mph5.6 kmh 30.02 in1016.6 mb - 0.00 in0.0 mm 0.00 in0.0 mm
10:00 AM 69.2°F20.7°C 60.2°F15.7°C 73% 2.3 mph S3.7 kmh S 2.3 mph3.7 kmh 30.02 in1016.6 mb - 0.00 in0.0 mm 0.00 in0.0 mm
10:05 AM 69.6°F20.9°C 60.6°F15.9°C 73% Calm Calm -- 30.02 in1016.6 mb - 0.00 in0.0 mm 0.00 in0.0 mm
10:10 AM 70.1°F21.2°C 60.7°F15.9°C 72% 2.3 mph SSW3.7 kmh SSW 3.5 mph5.6 kmh 30.02 in1016.6 mb - 0.00 in0.0 mm 0.00 in0.0 mm
10:15 AM 70.6°F21.4°C 61.1°F16.2°C 72% 1.2 mph S1.9 kmh S 3.5 mph5.6 kmh 30.02 in1016.6 mb - 0.00 in0.0 mm 0.00 in0.0 mm
10:20 AM 71.2°F21.8°C 61.7°F16.5°C 72% 2.3 mph W3.7 kmh W 3.5 mph5.6 kmh 30.02 in1016.6 mb - 0.00 in0.0 mm 0.00 in0.0 mm
10:25 AM 71.6°F22.0°C 61.7°F16.5°C 71% Calm Calm -- 30.02 in1016.6 mb - 0.00 in0.0 mm 0.00 in0.0 mm
10:30 AM 72.1°F22.3°C 62.2°F16.8°C 71% 3.5 mph WSW5.6 kmh WSW 3.5 mph5.6 kmh 30.02 in1016.6 mb - 0.00 in0.0 mm 0.00 in0.0 mm
10:35 AM 72.6°F22.6°C 62.7°F17.1°C 71% 2.3 mph SW3.7 kmh SW 3.5 mph5.6 kmh 30.01 in1016.3 mb - 0.00 in0.0 mm 0.00 in0.0 mm
10:40 AM 72.8°F22.7°C 62.0°F16.7°C 69% 2.3 mph SW3.7 kmh SW 3.5 mph5.6 kmh 30.02 in1016.6 mb - 0.00 in0.0 mm 0.00 in0.0 mm
10:45 AM 71.9°F22.2°C 61.2°F16.2°C 69% Calm Calm 1.2 mph1.9 kmh 30.01 in1016.3 mb - 0.00 in0.0 mm 0.00 in0.0 mm
10:50 AM 72.1°F22.3°C 61.8°F16.6°C 70% 1.2 mph S1.9 kmh S 2.3 mph3.7 kmh 30.01 in1016.3 mb - 0.00 in0.0 mm 0.00 in0.0 mm
10:55 AM 72.6°F22.6°C 62.2°F16.8°C 70% 1.2 mph S1.9 kmh S 2.3 mph3.7 kmh 30.01 in1016.3 mb - 0.00 in0.0 mm 0.00 in0.0 mm
11:00 AM 73.0°F22.8°C 61.8°F16.6°C 68% 1.2 mph S1.9 kmh S 2.3 mph3.7 kmh 30.01 in1016.3 mb - 0.00 in0.0 mm 0.00 in0.0 mm
11:05 AM 73.1°F22.8°C 62.3°F16.8°C 69% 2.3 mph SW3.7 kmh SW 3.5 mph5.6 kmh 30.01 in1016.3 mb - 0.00 in0.0 mm 0.00 in0.0 mm
11:10 AM 73.7°F23.2°C 62.1°F16.7°C 67% 1.2 mph SW1.9 kmh SW 3.5 mph5.6 kmh 30.01 in1016.3 mb - 0.00 in0.0 mm 0.00 in0.0 mm
11:15 AM 74.7°F23.7°C 63.0°F17.2°C 67% 1.2 mph WSW1.9 kmh WSW 2.3 mph3.7 kmh 30.01 in1016.3 mb - 0.00 in0.0 mm 0.00 in0.0 mm
11:20 AM 74.9°F23.8°C 61.5°F16.4°C 63% 1.2 mph S1.9 kmh S 1.2 mph1.9 kmh 30.01 in1016.3 mb - 0.00 in0.0 mm 0.00 in0.0 mm
11:25 AM 75.2°F24.0°C 62.2°F16.8°C 64% 1.2 mph ENE1.9 kmh ENE 2.3 mph3.7 kmh 30.01 in1016.3 mb - 0.00 in0.0 mm 0.00 in0.0 mm
11:30 AM 76.1°F24.5°C 63.1°F17.3°C 64% 2.3 mph SW3.7 kmh SW 3.5 mph5.6 kmh 30.00 in1015.9 mb - 0.00 in0.0 mm 0.00 in0.0 mm
11:35 AM 76.5°F24.7°C 62.5°F16.9°C 62% Calm Calm 2.3 mph3.7 kmh 30.00 in1015.9 mb - 0.00 in0.0 mm 0.00 in0.0 mm
11:40 AM 76.3°F24.6°C 61.4°F16.3°C 60% 2.3 mph SW3.7 kmh SW 4.6 mph7.4 kmh 30.00 in1015.9 mb - 0.00 in0.0 mm 0.00 in0.0 mm
11:45 AM 76.1°F24.5°C 61.7°F16.5°C 61% 1.2 mph SW1.9 kmh SW 1.2 mph1.9 kmh 30.00 in1015.9 mb - 0.00 in0.0 mm 0.00 in0.0 mm
11:50 AM 76.0°F24.4°C 61.5°F16.4°C 61% 2.3 mph S3.7 kmh S 3.5 mph5.6 kmh 30.00 in1015.9 mb - 0.00 in0.0 mm 0.00 in0.0 mm
11:55 AM 76.2°F24.6°C 62.2°F16.8°C 62% 2.3 mph W3.7 kmh W 3.5 mph5.6 kmh 30.00 in1015.9 mb - 0.00 in0.0 mm 0.00 in0.0 mm
12:00 PM 76.8°F24.9°C 61.9°F16.6°C 60% 2.3 mph WSW3.7 kmh WSW 3.5 mph5.6 kmh 30.00 in1015.9 mb - 0.00 in0.0 mm 0.00 in0.0 mm
12:05 PM 77.1°F25.1°C 61.7°F16.5°C 59% 2.3 mph S3.7 kmh S 3.5 mph5.6 kmh 29.99 in1015.6 mb - 0.00 in0.0 mm 0.00 in0.0 mm
12:10 PM 77.2°F25.1°C 60.3°F15.7°C 56% 3.5 mph SSW5.6 kmh SSW 5.8 mph9.3 kmh 30.00 in1015.9 mb - 0.00 in0.0 mm 0.00 in0.0 mm
12:15 PM 76.5°F24.7°C 60.6°F15.9°C 58% 2.3 mph S3.7 kmh S 3.5 mph5.6 kmh 29.99 in1015.6 mb - 0.00 in0.0 mm 0.00 in0.0 mm
12:20 PM 76.6°F24.8°C 60.7°F15.9°C 58% 1.2 mph S1.9 kmh S 3.5 mph5.6 kmh 29.99 in1015.6 mb - 0.00 in0.0 mm 0.00 in0.0 mm
12:25 PM 76.1°F24.5°C 59.3°F15.2°C 56% 1.2 mph SSW1.9 kmh SSW 1.2 mph1.9 kmh 29.99 in1015.6 mb - 0.00 in0.0 mm 0.00 in0.0 mm
12:30 PM 75.8°F24.3°C 60.4°F15.8°C 59% 1.2 mph S1.9 kmh S 3.5 mph5.6 kmh 29.99 in1015.6 mb - 0.00 in0.0 mm 0.00 in0.0 mm
12:35 PM 75.3°F24.1°C 60.0°F15.6°C 59% 1.2 mph S1.9 kmh S 2.3 mph3.7 kmh 29.99 in1015.6 mb - 0.00 in0.0 mm 0.00 in0.0 mm
12:40 PM 75.3°F24.1°C 60.0°F15.6°C 59% 1.2 mph SSE1.9 kmh SSE 3.5 mph5.6 kmh 29.99 in1015.6 mb - 0.00 in0.0 mm 0.00 in0.0 mm
12:45 PM 75.7°F24.3°C 59.8°F15.4°C 58% 2.3 mph SSE3.7 kmh SSE 3.5 mph5.6 kmh 29.99 in1015.6 mb - 0.00 in0.0 mm 0.00 in0.0 mm
12:50 PM 75.7°F24.3°C 59.9°F15.5°C 58% 2.3 mph SSE3.7 kmh SSE 3.5 mph5.6 kmh 29.99 in1015.6 mb - 0.00 in0.0 mm 0.00 in0.0 mm
12:55 PM 75.9°F24.4°C 60.6°F15.9°C 59% 2.3 mph SSE3.7 kmh SSE 4.6 mph7.4 kmh 29.98 in1015.2 mb - 0.00 in0.0 mm 0.00 in0.0 mm
01:00 PM 76.1°F24.5°C 59.8°F15.4°C 57% 2.3 mph SE3.7 kmh SE 3.5 mph5.6 kmh 29.99 in1015.6 mb - 0.00 in0.0 mm 0.00 in0.0 mm
01:05 PM 76.0°F24.4°C 60.2°F15.7°C 58% 2.3 mph SE3.7 kmh SE 3.5 mph5.6 kmh 29.99 in1015.6 mb - 0.00 in0.0 mm 0.00 in0.0 mm
01:10 PM 75.9°F24.4°C 60.5°F15.8°C 59% 2.3 mph SE3.7 kmh SE 4.6 mph7.4 kmh 29.99 in1015.6 mb - 0.00 in0.0 mm 0.00 in0.0 mm
01:15 PM 75.6°F24.2°C 60.8°F16.0°C 60% 2.3 mph ESE3.7 kmh ESE 3.5 mph5.6 kmh 29.99 in1015.6 mb - 0.00 in0.0 mm 0.00 in0.0 mm
01:20 PM 75.3°F24.1°C 60.5°F15.8°C 60% 2.3 mph ESE3.7 kmh ESE 3.5 mph5.6 kmh 29.99 in1015.6 mb - 0.00 in0.0 mm 0.00 in0.0 mm
01:25 PM 75.1°F23.9°C 60.7°F15.9°C 61% 3.5 mph SE5.6 kmh SE 4.6 mph7.4 kmh 29.99 in1015.6 mb - 0.00 in0.0 mm 0.00 in0.0 mm
01:30 PM 74.9°F23.8°C 61.0°F16.1°C 62% 3.5 mph SSE5.6 kmh SSE 5.8 mph9.3 kmh 29.99 in1015.6 mb - 0.00 in0.0 mm 0.00 in0.0 mm
01:35 PM 74.7°F23.7°C 61.7°F16.5°C 64% 3.5 mph SSE5.6 kmh SSE 6.9 mph11.1 kmh 29.99 in1015.6 mb - 0.00 in0.0 mm 0.00 in0.0 mm
01:40 PM 74.0°F23.3°C 61.5°F16.4°C 65% 4.6 mph SSE7.4 kmh SSE 5.8 mph9.3 kmh 30.00 in1015.9 mb - 0.00 in0.0 mm 0.00 in0.0 mm
01:45 PM 73.5°F23.1°C 61.5°F16.4°C 66% 3.5 mph SSE5.6 kmh SSE 5.8 mph9.3 kmh 30.00 in1015.9 mb - 0.00 in0.0 mm 0.00 in0.0 mm
01:50 PM 72.6°F22.6°C 60.6°F15.9°C 66% 3.5 mph S5.6 kmh S 4.6 mph7.4 kmh 29.99 in1015.6 mb - 0.00 in0.0 mm 0.00 in0.0 mm
01:55 PM 72.2°F22.3°C 61.5°F16.4°C 69% 2.3 mph S3.7 kmh S 3.5 mph5.6 kmh 30.00 in1015.9 mb - 0.00 in0.0 mm 0.00 in0.0 mm
02:00 PM 71.7°F22.1°C 61.4°F16.3°C 70% 2.3 mph SE3.7 kmh SE 2.3 mph3.7 kmh 30.00 in1015.9 mb - 0.00 in0.0 mm 0.00 in0.0 mm
02:05 PM 71.0°F21.7°C 61.5°F16.4°C 72% 3.5 mph WSW5.6 kmh WSW 6.9 mph11.1 kmh 30.01 in1016.3 mb - 0.00 in0.0 mm 0.00 in0.0 mm
02:10 PM 70.0°F21.1°C 60.5°F15.8°C 72% 6.9 mph SW11.1 kmh SW 11.5 mph18.5 kmh 30.02 in1016.6 mb - 0.00 in0.0 mm 0.00 in0.0 mm
02:15 PM 68.7°F20.4°C 60.1°F15.6°C 74% 3.5 mph SE5.6 kmh SE 3.5 mph5.6 kmh 30.02 in1016.6 mb - 0.00 in0.0 mm 0.00 in0.0 mm
02:20 PM 68.5°F20.3°C 59.9°F15.5°C 74% Calm Calm 1.2 mph1.9 kmh 30.02 in1016.6 mb - 0.00 in0.0 mm 0.00 in0.0 mm
02:25 PM 68.4°F20.2°C 59.8°F15.4°C 74% Calm Calm -- 30.02 in1016.6 mb - 0.00 in0.0 mm 0.00 in0.0 mm
02:30 PM 68.3°F20.2°C 59.7°F15.4°C 74% 1.2 mph E1.9 kmh E 3.5 mph5.6 kmh 30.02 in1016.6 mb - 0.00 in0.0 mm 0.00 in0.0 mm
02:35 PM 68.2°F20.1°C 60.0°F15.6°C 75% 3.5 mph S5.6 kmh S 3.5 mph5.6 kmh 30.02 in1016.6 mb - 0.00 in0.0 mm 0.00 in0.0 mm
02:40 PM 67.4°F19.7°C 59.2°F15.1°C 75% 2.3 mph SW3.7 kmh SW 3.5 mph5.6 kmh 30.02 in1016.6 mb - 0.00 in0.0 mm 0.00 in0.0 mm
02:45 PM 67.0°F19.4°C 58.8°F14.9°C 75% 1.2 mph W1.9 kmh W 2.3 mph3.7 kmh 30.02 in1016.6 mb - 0.02 in0.5 mm 0.02 in0.5 mm
02:50 PM 66.7°F19.3°C 58.5°F14.7°C 75% Calm Calm -- 30.02 in1016.6 mb - 0.01 in0.3 mm 0.03 in0.8 mm
02:55 PM 66.3°F19.1°C 58.1°F14.5°C 75% 2.3 mph N3.7 kmh N 3.5 mph5.6 kmh 30.02 in1016.6 mb - 0.00 in0.0 mm 0.03 in0.8 mm
03:00 PM 65.9°F18.8°C 57.8°F14.3°C 75% 2.3 mph N3.7 kmh N 3.5 mph5.6 kmh 30.02 in1016.6 mb - 0.01 in0.3 mm 0.03 in0.8 mm
03:05 PM 65.6°F18.7°C 57.5°F14.2°C 75% 2.3 mph N3.7 kmh N 3.5 mph5.6 kmh 30.01 in1016.3 mb - 0.00 in0.0 mm 0.03 in0.8 mm
03:10 PM 65.3°F18.5°C 57.2°F14.0°C 75% Calm Calm 1.2 mph1.9 kmh 30.01 in1016.3 mb - 0.01 in0.3 mm 0.04 in1.0 mm
03:15 PM 65.1°F18.4°C 57.0°F13.9°C 75% 2.3 mph N3.7 kmh N 3.5 mph5.6 kmh 30.01 in1016.3 mb - 0.01 in0.3 mm 0.05 in1.3 mm
03:20 PM 64.9°F18.3°C 56.8°F13.8°C 75% Calm Calm 1.2 mph1.9 kmh 30.01 in1016.3 mb - 0.01 in0.3 mm 0.06 in1.5 mm
03:25 PM 64.9°F18.3°C 57.2°F14.0°C 76% 1.2 mph N1.9 kmh N 2.3 mph3.7 kmh 30.01 in1016.3 mb - 0.01 in0.3 mm 0.07 in1.8 mm
03:30 PM 65.0°F18.3°C 57.2°F14.0°C 76% 1.2 mph NNW1.9 kmh NNW 2.3 mph3.7 kmh 30.01 in1016.3 mb - 0.01 in0.3 mm 0.07 in1.8 mm
03:35 PM 65.0°F18.3°C 57.2°F14.0°C 76% Calm Calm -- 30.01 in1016.3 mb - 0.01 in0.3 mm 0.08 in2.0 mm
03:40 PM 64.9°F18.3°C 57.2°F14.0°C 76% Calm Calm -- 30.01 in1016.3 mb - 0.00 in0.0 mm 0.08 in2.0 mm
03:45 PM 64.9°F18.3°C 57.2°F14.0°C 76% 2.3 mph NNW3.7 kmh NNW 3.5 mph5.6 kmh 30.00 in1015.9 mb - 0.01 in0.3 mm 0.09 in2.3 mm
03:50 PM 64.9°F18.3°C 57.2°F14.0°C 76% 1.2 mph NNW1.9 kmh NNW 1.2 mph1.9 kmh 30.00 in1015.9 mb - 0.00 in0.0 mm 0.09 in2.3 mm
03:55 PM 65.0°F18.3°C 57.6°F14.2°C 77% 1.2 mph NNW1.9 kmh NNW 2.3 mph3.7 kmh 30.00 in1015.9 mb - 0.01 in0.3 mm 0.10 in2.5 mm
04:00 PM 65.1°F18.4°C 57.3°F14.1°C 76% 1.2 mph NNE1.9 kmh NNE 2.3 mph3.7 kmh 30.00 in1015.9 mb - 0.01 in0.3 mm 0.11 in2.8 mm
04:05 PM 65.4°F18.6°C 58.0°F14.4°C 77% 1.2 mph SE1.9 kmh SE 2.3 mph3.7 kmh 30.00 in1015.9 mb - 0.02 in0.5 mm 0.12 in3.0 mm
04:10 PM 65.6°F18.7°C 58.2°F14.6°C 77% Calm Calm 1.2 mph1.9 kmh 30.00 in1015.9 mb - 0.01 in0.3 mm 0.12 in3.0 mm
04:15 PM 65.5°F18.6°C 57.7°F14.3°C 76% Calm Calm 1.2 mph1.9 kmh 30.00 in1015.9 mb - 0.01 in0.3 mm 0.12 in3.0 mm
04:20 PM 65.2°F18.4°C 57.4°F14.1°C 76% 2.3 mph SSW3.7 kmh SSW 3.5 mph5.6 kmh 30.00 in1015.9 mb - 0.00 in0.0 mm 0.12 in3.0 mm
04:25 PM 65.3°F18.5°C 57.9°F14.4°C 77% 3.5 mph SSW5.6 kmh SSW 3.5 mph5.6 kmh 30.00 in1015.9 mb - 0.00 in0.0 mm 0.12 in3.0 mm
04:30 PM 65.4°F18.6°C 58.0°F14.4°C 77% 1.2 mph S1.9 kmh S 1.2 mph1.9 kmh 30.00 in1015.9 mb - 0.00 in0.0 mm 0.12 in3.0 mm
04:35 PM 65.7°F18.7°C 58.3°F14.6°C 77% Calm Calm 2.3 mph3.7 kmh 30.00 in1015.9 mb - 0.00 in0.0 mm 0.12 in3.0 mm
04:40 PM 65.7°F18.7°C 57.9°F14.4°C 76% 2.3 mph S3.7 kmh S 3.5 mph5.6 kmh 30.00 in1015.9 mb - 0.00 in0.0 mm 0.12 in3.0 mm
04:45 PM 65.9°F18.8°C 58.1°F14.5°C 76% 1.2 mph S1.9 kmh S 1.2 mph1.9 kmh 30.00 in1015.9 mb - 0.00 in0.0 mm 0.12 in3.0 mm
04:50 PM 66.1°F18.9°C 58.3°F14.6°C 76% Calm Calm 1.2 mph1.9 kmh 30.00 in1015.9 mb - 0.00 in0.0 mm 0.12 in3.0 mm
04:55 PM 66.5°F19.2°C 58.7°F14.8°C 76% 2.3 mph SE3.7 kmh SE 3.5 mph5.6 kmh 30.00 in1015.9 mb - 0.00 in0.0 mm 0.12 in3.0 mm
05:00 PM 66.8°F19.3°C 59.0°F15.0°C 76% 1.2 mph ESE1.9 kmh ESE 3.5 mph5.6 kmh 30.00 in1015.9 mb - 0.00 in0.0 mm 0.12 in3.0 mm
05:05 PM 66.9°F19.4°C 58.7°F14.8°C 75% 3.5 mph E5.6 kmh E 5.8 mph9.3 kmh 29.99 in1015.6 mb - 0.00 in0.0 mm 0.12 in3.0 mm
05:10 PM 67.2°F19.6°C 59.0°F15.0°C 75% 4.6 mph E7.4 kmh E 6.9 mph11.1 kmh 29.99 in1015.6 mb - 0.00 in0.0 mm 0.12 in3.0 mm
05:15 PM 67.5°F19.7°C 59.3°F15.2°C 75% 3.5 mph E5.6 kmh E 5.8 mph9.3 kmh 29.99 in1015.6 mb - 0.00 in0.0 mm 0.12 in3.0 mm
05:20 PM 67.7°F19.8°C 59.5°F15.3°C 75% 4.6 mph E7.4 kmh E 8.1 mph13.0 kmh 29.99 in1015.6 mb - 0.00 in0.0 mm 0.12 in3.0 mm
05:25 PM 67.8°F19.9°C 59.6°F15.3°C 75% 2.3 mph E3.7 kmh E 3.5 mph5.6 kmh 29.99 in1015.6 mb - 0.00 in0.0 mm 0.12 in3.0 mm
05:30 PM 68.0°F20.0°C 59.8°F15.4°C 75% 2.3 mph SE3.7 kmh SE 3.5 mph5.6 kmh 29.99 in1015.6 mb - 0.00 in0.0 mm 0.12 in3.0 mm
05:35 PM 68.1°F20.1°C 59.9°F15.5°C 75% 1.2 mph E1.9 kmh E 2.3 mph3.7 kmh 29.99 in1015.6 mb - 0.00 in0.0 mm 0.12 in3.0 mm
05:40 PM 68.3°F20.2°C 60.1°F15.6°C 75% 1.2 mph E1.9 kmh E 2.3 mph3.7 kmh 29.99 in1015.6 mb - 0.00 in0.0 mm 0.12 in3.0 mm
05:45 PM 68.4°F20.2°C 60.2°F15.7°C 75% 2.3 mph SSE3.7 kmh SSE 2.3 mph3.7 kmh 29.99 in1015.6 mb - 0.00 in0.0 mm 0.12 in3.0 mm
05:50 PM 68.4°F20.2°C 60.2°F15.7°C 75% 2.3 mph SSE3.7 kmh SSE 3.5 mph5.6 kmh 29.99 in1015.6 mb - 0.00 in0.0 mm 0.12 in3.0 mm
05:55 PM 68.4°F20.2°C 60.2°F15.7°C 75% 2.3 mph SSE3.7 kmh SSE 3.5 mph5.6 kmh 29.99 in1015.6 mb - 0.00 in0.0 mm 0.12 in3.0 mm
06:00 PM 68.4°F20.2°C 60.2°F15.7°C 75% 1.2 mph SSE1.9 kmh SSE 3.5 mph5.6 kmh 29.99 in1015.6 mb - 0.00 in0.0 mm 0.12 in3.0 mm
06:05 PM 68.2°F20.1°C 60.0°F15.6°C 75% Calm Calm -- 29.99 in1015.6 mb - 0.00 in0.0 mm 0.12 in3.0 mm
06:10 PM 68.0°F20.0°C 59.8°F15.4°C 75% 1.2 mph SSE1.9 kmh SSE 2.3 mph3.7 kmh 29.99 in1015.6 mb - 0.00 in0.0 mm 0.12 in3.0 mm
06:15 PM 67.8°F19.9°C 59.6°F15.3°C 75% 1.2 mph SSE1.9 kmh SSE 2.3 mph3.7 kmh 30.00 in1015.9 mb - 0.00 in0.0 mm 0.12 in3.0 mm
06:20 PM 67.4°F19.7°C 59.2°F15.1°C 75% 1.2 mph SSE1.9 kmh SSE 1.2 mph1.9 kmh 29.99 in1015.6 mb - 0.00 in0.0 mm 0.12 in3.0 mm
06:25 PM 67.2°F19.6°C 59.4°F15.2°C 76% Calm Calm 1.2 mph1.9 kmh 30.00 in1015.9 mb - 0.00 in0.0 mm 0.12 in3.0 mm
06:30 PM 67.1°F19.5°C 58.9°F14.9°C 75% Calm Calm -- 29.99 in1015.6 mb - 0.00 in0.0 mm 0.12 in3.0 mm
06:35 PM 67.0°F19.4°C 58.8°F14.9°C 75% Calm Calm -- 30.00 in1015.9 mb - 0.00 in0.0 mm 0.12 in3.0 mm
06:40 PM 66.9°F19.4°C 58.7°F14.8°C 75% Calm Calm -- 30.00 in1015.9 mb - 0.00 in0.0 mm 0.12 in3.0 mm
06:45 PM 66.8°F19.3°C 58.6°F14.8°C 75% Calm Calm -- 30.00 in1015.9 mb - 0.00 in0.0 mm 0.12 in3.0 mm
06:50 PM 66.8°F19.3°C 58.6°F14.8°C 75% Calm Calm -- 29.99 in1015.6 mb - 0.00 in0.0 mm 0.12 in3.0 mm
06:55 PM 66.9°F19.4°C 58.7°F14.8°C 75% 2.3 mph N3.7 kmh N 2.3 mph3.7 kmh 29.99 in1015.6 mb - 0.00 in0.0 mm 0.12 in3.0 mm
07:00 PM 66.9°F19.4°C 58.7°F14.8°C 75% Calm Calm -- 29.99 in1015.6 mb - 0.00 in0.0 mm 0.12 in3.0 mm
07:05 PM 66.9°F19.4°C 58.7°F14.8°C 75% 1.2 mph N1.9 kmh N 1.2 mph1.9 kmh 29.99 in1015.6 mb - 0.00 in0.0 mm 0.12 in3.0 mm
07:10 PM 66.8°F19.3°C 58.6°F14.8°C 75% Calm Calm 1.2 mph1.9 kmh 30.00 in1015.9 mb - 0.00 in0.0 mm 0.12 in3.0 mm
07:15 PM 66.7°F19.3°C 58.9°F14.9°C 76% 1.2 mph N1.9 kmh N 2.3 mph3.7 kmh 30.00 in1015.9 mb - 0.00 in0.0 mm 0.12 in3.0 mm
07:20 PM 66.6°F19.2°C 58.8°F14.9°C 76% 1.2 mph N1.9 kmh N 2.3 mph3.7 kmh 30.00 in1015.9 mb - 0.00 in0.0 mm 0.12 in3.0 mm
07:25 PM 66.3°F19.1°C 58.5°F14.7°C 76% 2.3 mph N3.7 kmh N 2.3 mph3.7 kmh 30.00 in1015.9 mb - 0.00 in0.0 mm 0.12 in3.0 mm
07:30 PM 66.1°F18.9°C 58.3°F14.6°C 76% 1.2 mph N1.9 kmh N 2.3 mph3.7 kmh 29.99 in1015.6 mb - 0.00 in0.0 mm 0.12 in3.0 mm
07:35 PM 65.8°F18.8°C 58.0°F14.4°C 76% 1.2 mph N1.9 kmh N 2.3 mph3.7 kmh 30.00 in1015.9 mb - 0.00 in0.0 mm 0.12 in3.0 mm
07:40 PM 65.6°F18.7°C 57.8°F14.3°C 76% 1.2 mph N1.9 kmh N 2.3 mph3.7 kmh 30.00 in1015.9 mb - 0.00 in0.0 mm 0.12 in3.0 mm
07:45 PM 65.4°F18.6°C 57.6°F14.2°C 76% 1.2 mph N1.9 kmh N 2.3 mph3.7 kmh 30.00 in1015.9 mb - 0.00 in0.0 mm 0.12 in3.0 mm
07:50 PM 65.2°F18.4°C 57.5°F14.2°C 76% 1.2 mph N1.9 kmh N 2.3 mph3.7 kmh 30.00 in1015.9 mb - 0.00 in0.0 mm 0.12 in3.0 mm
07:55 PM 65.1°F18.4°C 57.3°F14.1°C 76% Calm Calm -- 30.00 in1015.9 mb - 0.00 in0.0 mm 0.12 in3.0 mm
08:00 PM 65.0°F18.3°C 57.2°F14.0°C 76% 1.2 mph N1.9 kmh N 1.2 mph1.9 kmh 30.00 in1015.9 mb - 0.00 in0.0 mm 0.12 in3.0 mm
08:05 PM 64.9°F18.3°C 57.2°F14.0°C 76% Calm Calm 1.2 mph1.9 kmh 30.00 in1015.9 mb - 0.00 in0.0 mm 0.12 in3.0 mm
08:10 PM 64.7°F18.2°C 57.0°F13.9°C 76% Calm Calm -- 30.00 in1015.9 mb - 0.00 in0.0 mm 0.12 in3.0 mm
08:15 PM 64.5°F18.1°C 56.8°F13.8°C 76% Calm Calm -- 30.00 in1015.9 mb - 0.00 in0.0 mm 0.12 in3.0 mm
08:20 PM 64.3°F17.9°C 56.6°F13.7°C 76% 1.2 mph N1.9 kmh N 3.5 mph5.6 kmh 30.00 in1015.9 mb - 0.00 in0.0 mm 0.12 in3.0 mm
08:25 PM 64.0°F17.8°C 56.3°F13.5°C 76% 1.2 mph N1.9 kmh N 2.3 mph3.7 kmh 30.00 in1015.9 mb - 0.00 in0.0 mm 0.12 in3.0 mm
08:30 PM 63.8°F17.7°C 56.1°F13.4°C 76% 1.2 mph N1.9 kmh N 2.3 mph3.7 kmh 30.00 in1015.9 mb - 0.00 in0.0 mm 0.12 in3.0 mm
08:35 PM 63.5°F17.5°C 55.8°F13.2°C 76% Calm Calm -- 30.00 in1015.9 mb - 0.00 in0.0 mm 0.12 in3.0 mm
08:40 PM 63.2°F17.3°C 55.5°F13.1°C 76% Calm Calm -- 30.01 in1016.3 mb - 0.00 in0.0 mm 0.12 in3.0 mm
08:45 PM 62.9°F17.2°C 55.3°F12.9°C 76% Calm Calm -- 30.01 in1016.3 mb - 0.00 in0.0 mm 0.12 in3.0 mm
08:50 PM 62.7°F17.1°C 55.0°F12.8°C 76% Calm Calm -- 30.01 in1016.3 mb - 0.00 in0.0 mm 0.12 in3.0 mm
08:55 PM 62.5°F16.9°C 54.9°F12.7°C 76% 2.3 mph N3.7 kmh N 3.5 mph5.6 kmh 30.01 in1016.3 mb - 0.00 in0.0 mm 0.12 in3.0 mm
09:00 PM 62.4°F16.9°C 54.7°F12.6°C 76% 3.5 mph N5.6 kmh N 4.6 mph7.4 kmh 30.01 in1016.3 mb - 0.00 in0.0 mm 0.12 in3.0 mm
09:05 PM 62.2°F16.8°C 54.6°F12.6°C 76% 3.5 mph N5.6 kmh N 4.6 mph7.4 kmh 30.01 in1016.3 mb - 0.00 in0.0 mm 0.12 in3.0 mm
09:10 PM 62.2°F16.8°C 54.5°F12.5°C 76% 3.5 mph NNE5.6 kmh NNE 3.5 mph5.6 kmh 30.01 in1016.3 mb - 0.00 in0.0 mm 0.12 in3.0 mm
09:15 PM 62.2°F16.8°C 54.6°F12.6°C 76% 2.3 mph N3.7 kmh N 3.5 mph5.6 kmh 30.01 in1016.3 mb - 0.00 in0.0 mm 0.12 in3.0 mm
09:20 PM 62.3°F16.8°C 54.6°F12.6°C 76% 2.3 mph N3.7 kmh N 3.5 mph5.6 kmh 30.00 in1015.9 mb - 0.00 in0.0 mm 0.12 in3.0 mm
09:25 PM 62.3°F16.8°C 54.7°F12.6°C 76% 2.3 mph N3.7 kmh N 3.5 mph5.6 kmh 30.00 in1015.9 mb - 0.00 in0.0 mm 0.12 in3.0 mm
09:30 PM 62.2°F16.8°C 54.5°F12.5°C 76% 3.5 mph NNE5.6 kmh NNE 4.6 mph7.4 kmh 30.00 in1015.9 mb - 0.00 in0.0 mm 0.12 in3.0 mm
09:35 PM 62.1°F16.7°C 54.4°F12.4°C 76% 3.5 mph N5.6 kmh N 4.6 mph7.4 kmh 30.00 in1015.9 mb - 0.00 in0.0 mm 0.12 in3.0 mm
09:40 PM 61.9°F16.6°C 54.3°F12.4°C 76% 3.5 mph NNE5.6 kmh NNE 4.6 mph7.4 kmh 30.00 in1015.9 mb - 0.00 in0.0 mm 0.12 in3.0 mm
09:45 PM 61.8°F16.6°C 54.2°F12.3°C 76% 3.5 mph NNE5.6 kmh NNE 4.6 mph7.4 kmh 30.00 in1015.9 mb - 0.00 in0.0 mm 0.12 in3.0 mm
09:50 PM 61.7°F16.5°C 54.1°F12.3°C 76% 3.5 mph N5.6 kmh N 4.6 mph7.4 kmh 30.00 in1015.9 mb - 0.00 in0.0 mm 0.12 in3.0 mm
09:55 PM 61.6°F16.4°C 54.0°F12.2°C 76% 4.6 mph N7.4 kmh N 8.1 mph13.0 kmh 30.00 in1015.9 mb - 0.00 in0.0 mm 0.12 in3.0 mm
10:00 PM 61.5°F16.4°C 53.9°F12.2°C 76% 2.3 mph N3.7 kmh N 4.6 mph7.4 kmh 30.00 in1015.9 mb - 0.00 in0.0 mm 0.12 in3.0 mm
10:05 PM 61.4°F16.3°C 53.8°F12.1°C 76% 3.5 mph NNE5.6 kmh NNE 4.6 mph7.4 kmh 30.00 in1015.9 mb - 0.00 in0.0 mm 0.12 in3.0 mm
10:10 PM 61.3°F16.3°C 53.7°F12.1°C 76% 3.5 mph NNE5.6 kmh NNE 3.5 mph5.6 kmh 30.00 in1015.9 mb - 0.00 in0.0 mm 0.12 in3.0 mm
10:15 PM 61.2°F16.2°C 53.6°F12.0°C 76% Calm Calm -- 30.00 in1015.9 mb - 0.00 in0.0 mm 0.12 in3.0 mm
10:20 PM 61.0°F16.1°C 53.3°F11.8°C 76% Calm Calm 2.3 mph3.7 kmh 30.00 in1015.9 mb - 0.00 in0.0 mm 0.12 in3.0 mm
10:25 PM 60.7°F15.9°C 53.1°F11.7°C 76% 2.3 mph NNE3.7 kmh NNE 3.5 mph5.6 kmh 30.00 in1015.9 mb - 0.00 in0.0 mm 0.12 in3.0 mm
10:30 PM 60.5°F15.8°C 53.3°F11.8°C 77% 2.3 mph N3.7 kmh N 3.5 mph5.6 kmh 30.00 in1015.9 mb - 0.00 in0.0 mm 0.12 in3.0 mm
10:35 PM 60.4°F15.8°C 52.8°F11.6°C 76% 2.3 mph N3.7 kmh N 3.5 mph5.6 kmh 30.00 in1015.9 mb - 0.00 in0.0 mm 0.12 in3.0 mm
10:40 PM 60.4°F15.8°C 53.2°F11.8°C 77% 2.3 mph NNE3.7 kmh NNE 3.5 mph5.6 kmh 30.00 in1015.9 mb - 0.00 in0.0 mm 0.12 in3.0 mm
10:45 PM 60.4°F15.8°C 52.8°F11.6°C 76% 3.5 mph NNE5.6 kmh NNE 4.6 mph7.4 kmh 30.00 in1015.9 mb - 0.00 in0.0 mm 0.12 in3.0 mm
10:50 PM 60.3°F15.7°C 52.7°F11.5°C 76% 3.5 mph N5.6 kmh N 4.6 mph7.4 kmh 30.00 in1015.9 mb - 0.00 in0.0 mm 0.12 in3.0 mm
10:55 PM 60.2°F15.7°C 52.6°F11.4°C 76% 1.2 mph NNW1.9 kmh NNW 3.5 mph5.6 kmh 30.00 in1015.9 mb - 0.00 in0.0 mm 0.12 in3.0 mm
11:00 PM 60.1°F15.6°C 52.5°F11.4°C 76% 1.2 mph NNW1.9 kmh NNW 1.2 mph1.9 kmh 30.00 in1015.9 mb - 0.00 in0.0 mm 0.17 in4.3 mm
11:05 PM 59.9°F15.5°C 52.7°F11.5°C 77% Calm Calm -- 30.00 in1015.9 mb - 0.00 in0.0 mm 0.17 in4.3 mm
11:10 PM 59.8°F15.4°C 52.5°F11.4°C 77% Calm Calm -- 30.00 in1015.9 mb - 0.00 in0.0 mm 0.17 in4.3 mm
11:15 PM 59.6°F15.3°C 52.3°F11.3°C 77% 2.3 mph NNW3.7 kmh NNW 3.5 mph5.6 kmh 30.00 in1015.9 mb - 0.00 in0.0 mm 0.17 in4.3 mm
11:20 PM 59.3°F15.2°C 52.1°F11.2°C 77% 2.3 mph N3.7 kmh N 4.6 mph7.4 kmh 30.00 in1015.9 mb - 0.00 in0.0 mm 0.17 in4.3 mm
11:25 PM 59.0°F15.0°C 51.8°F11.0°C 77% 3.5 mph N5.6 kmh N 3.5 mph5.6 kmh 30.00 in1015.9 mb - 0.00 in0.0 mm 0.17 in4.3 mm
11:30 PM 58.9°F14.9°C 51.7°F10.9°C 77% 1.2 mph N1.9 kmh N 2.3 mph3.7 kmh 30.00 in1015.9 mb - 0.00 in0.0 mm 0.17 in4.3 mm
11:35 PM 58.7°F14.8°C 51.5°F10.8°C 77% 1.2 mph N1.9 kmh N 2.3 mph3.7 kmh 30.00 in1015.9 mb - 0.00 in0.0 mm 0.17 in4.3 mm
11:40 PM 58.6°F14.8°C 51.4°F10.8°C 77% 2.3 mph N3.7 kmh N 3.5 mph5.6 kmh 30.00 in1015.9 mb - 0.00 in0.0 mm 0.17 in4.3 mm
11:45 PM 58.6°F14.8°C 51.4°F10.8°C 77% 1.2 mph NNE1.9 kmh NNE 2.3 mph3.7 kmh 30.00 in1015.9 mb - 0.00 in0.0 mm 0.17 in4.3 mm
11:50 PM 58.5°F14.7°C 51.3°F10.7°C 77% Calm Calm -- 30.00 in1015.9 mb - 0.00 in0.0 mm 0.17 in4.3 mm
11:55 PM 58.3°F14.6°C 51.1°F10.6°C 77% 2.3 mph NW3.7 kmh NW 3.5 mph5.6 kmh 30.00 in1015.9 mb - 0.00 in0.0 mm 0.17 in4.3 mm